sensor_id;sensor_type;location;lat;lon;timestamp;P1;durP1;ratioP1;P2;durP2;ratioP2
9260;SDS011;4667;42.726;23.252;2023-08-01T00:01:16;5.10;;;2.53;;
9260;SDS011;4667;42.726;23.252;2023-08-01T00:03:43;3.38;;;2.42;;
9260;SDS011;4667;42.726;23.252;2023-08-01T00:06:10;5.75;;;2.50;;
9260;SDS011;4667;42.726;23.252;2023-08-01T00:08:37;2.53;;;2.33;;
9260;SDS011;4667;42.726;23.252;2023-08-01T00:11:03;3.33;;;2.47;;
9260;SDS011;4667;42.726;23.252;2023-08-01T00:13:30;3.17;;;2.35;;
9260;SDS011;4667;42.726;23.252;2023-08-01T00:15:58;2.92;;;2.22;;
9260;SDS011;4667;42.726;23.252;2023-08-01T00:18:25;2.95;;;2.72;;
9260;SDS011;4667;42.726;23.252;2023-08-01T00:20:52;3.03;;;2.40;;
9260;SDS011;4667;42.726;23.252;2023-08-01T00:23:19;2.42;;;2.20;;
9260;SDS011;4667;42.726;23.252;2023-08-01T00:25:45;5.05;;;2.50;;
9260;SDS011;4667;42.726;23.252;2023-08-01T00:28:16;3.80;;;2.40;;
9260;SDS011;4667;42.726;23.252;2023-08-01T00:30:43;3.13;;;2.80;;
9260;SDS011;4667;42.726;23.252;2023-08-01T00:33:11;2.95;;;2.65;;
9260;SDS011;4667;42.726;23.252;2023-08-01T00:35:38;2.30;;;2.10;;
9260;SDS011;4667;42.726;23.252;2023-08-01T00:38:04;2.70;;;2.30;;
9260;SDS011;4667;42.726;23.252;2023-08-01T00:40:31;3.78;;;2.53;;
9260;SDS011;4667;42.726;23.252;2023-08-01T00:42:58;4.00;;;2.30;;
9260;SDS011;4667;42.726;23.252;2023-08-01T00:45:25;3.47;;;2.20;;
9260;SDS011;4667;42.726;23.252;2023-08-01T00:47:53;2.75;;;2.50;;
9260;SDS011;4667;42.726;23.252;2023-08-01T00:50:22;2.90;;;2.58;;
9260;SDS011;4667;42.726;23.252;2023-08-01T00:52:49;4.32;;;2.60;;
9260;SDS011;4667;42.726;23.252;2023-08-01T00:55:18;4.70;;;2.28;;
9260;SDS011;4667;42.726;23.252;2023-08-01T00:57:44;3.28;;;2.60;;
9260;SDS011;4667;42.726;23.252;2023-08-01T01:00:13;6.63;;;2.63;;
9260;SDS011;4667;42.726;23.252;2023-08-01T01:02:40;3.00;;;2.50;;
9260;SDS011;4667;42.726;23.252;2023-08-01T01:05:07;9.50;;;2.70;;
9260;SDS011;4667;42.726;23.252;2023-08-01T01:07:35;4.10;;;2.55;;
9260;SDS011;4667;42.726;23.252;2023-08-01T01:10:03;3.83;;;2.22;;
9260;SDS011;4667;42.726;23.252;2023-08-01T01:12:30;3.20;;;2.90;;
9260;SDS011;4667;42.726;23.252;2023-08-01T01:14:57;2.65;;;2.30;;
9260;SDS011;4667;42.726;23.252;2023-08-01T01:17:23;4.57;;;2.92;;
9260;SDS011;4667;42.726;23.252;2023-08-01T01:19:50;3.47;;;2.80;;
9260;SDS011;4667;42.726;23.252;2023-08-01T01:22:18;2.92;;;2.63;;
9260;SDS011;4667;42.726;23.252;2023-08-01T01:24:45;3.85;;;2.35;;
9260;SDS011;4667;42.726;23.252;2023-08-01T01:27:14;4.43;;;2.45;;
9260;SDS011;4667;42.726;23.252;2023-08-01T01:29:43;3.45;;;2.42;;
9260;SDS011;4667;42.726;23.252;2023-08-01T01:32:11;3.90;;;2.15;;
9260;SDS011;4667;42.726;23.252;2023-08-01T01:34:38;3.70;;;2.53;;
9260;SDS011;4667;42.726;23.252;2023-08-01T01:37:05;5.40;;;2.30;;
9260;SDS011;4667;42.726;23.252;2023-08-01T01:39:33;3.55;;;2.80;;
9260;SDS011;4667;42.726;23.252;2023-08-01T01:42:00;2.72;;;2.28;;
9260;SDS011;4667;42.726;23.252;2023-08-01T01:44:26;2.63;;;2.40;;
9260;SDS011;4667;42.726;23.252;2023-08-01T01:46:53;3.47;;;2.70;;
9260;SDS011;4667;42.726;23.252;2023-08-01T01:49:20;3.30;;;2.50;;
9260;SDS011;4667;42.726;23.252;2023-08-01T01:51:46;2.80;;;2.25;;
9260;SDS011;4667;42.726;23.252;2023-08-01T01:54:13;6.03;;;2.88;;
9260;SDS011;4667;42.726;23.252;2023-08-01T01:56:41;3.15;;;2.30;;
9260;SDS011;4667;42.726;23.252;2023-08-01T01:59:08;5.45;;;2.13;;
9260;SDS011;4667;42.726;23.252;2023-08-01T02:01:35;4.35;;;2.47;;
9260;SDS011;4667;42.726;23.252;2023-08-01T02:04:01;3.45;;;2.58;;
9260;SDS011;4667;42.726;23.252;2023-08-01T02:06:28;3.10;;;2.35;;
9260;SDS011;4667;42.726;23.252;2023-08-01T02:08:55;4.97;;;2.53;;
9260;SDS011;4667;42.726;23.252;2023-08-01T02:11:22;3.47;;;2.90;;
9260;SDS011;4667;42.726;23.252;2023-08-01T02:13:50;4.32;;;2.22;;
9260;SDS011;4667;42.726;23.252;2023-08-01T02:16:16;4.00;;;2.28;;
9260;SDS011;4667;42.726;23.252;2023-08-01T02:18:43;2.97;;;2.67;;
9260;SDS011;4667;42.726;23.252;2023-08-01T02:21:10;3.10;;;2.40;;
9260;SDS011;4667;42.726;23.252;2023-08-01T02:23:37;3.28;;;2.60;;
9260;SDS011;4667;42.726;23.252;2023-08-01T02:26:04;4.80;;;2.55;;
9260;SDS011;4667;42.726;23.252;2023-08-01T02:28:33;2.92;;;2.70;;
9260;SDS011;4667;42.726;23.252;2023-08-01T02:31:01;3.05;;;2.50;;
9260;SDS011;4667;42.726;23.252;2023-08-01T02:33:28;4.60;;;2.80;;
9260;SDS011;4667;42.726;23.252;2023-08-01T02:35:54;3.38;;;2.65;;
9260;SDS011;4667;42.726;23.252;2023-08-01T02:38:21;4.07;;;2.95;;
9260;SDS011;4667;42.726;23.252;2023-08-01T02:40:48;4.20;;;2.50;;
9260;SDS011;4667;42.726;23.252;2023-08-01T02:43:14;2.95;;;2.50;;
9260;SDS011;4667;42.726;23.252;2023-08-01T02:45:42;3.28;;;2.65;;
9260;SDS011;4667;42.726;23.252;2023-08-01T02:48:10;4.25;;;2.97;;
9260;SDS011;4667;42.726;23.252;2023-08-01T02:50:37;3.55;;;2.85;;
9260;SDS011;4667;42.726;23.252;2023-08-01T02:53:04;4.10;;;2.60;;
9260;SDS011;4667;42.726;23.252;2023-08-01T02:55:31;5.13;;;3.53;;
9260;SDS011;4667;42.726;23.252;2023-08-01T02:57:58;4.30;;;3.10;;
9260;SDS011;4667;42.726;23.252;2023-08-01T03:00:24;5.40;;;3.03;;
9260;SDS011;4667;42.726;23.252;2023-08-01T03:02:51;4.27;;;3.17;;
9260;SDS011;4667;42.726;23.252;2023-08-01T03:05:19;5.27;;;2.73;;
9260;SDS011;4667;42.726;23.252;2023-08-01T03:07:46;4.20;;;2.87;;
9260;SDS011;4667;42.726;23.252;2023-08-01T03:10:13;5.17;;;3.00;;
9260;SDS011;4667;42.726;23.252;2023-08-01T03:12:40;3.33;;;2.70;;
9260;SDS011;4667;42.726;23.252;2023-08-01T03:15:10;3.17;;;2.83;;
9260;SDS011;4667;42.726;23.252;2023-08-01T03:17:36;4.60;;;3.13;;
9260;SDS011;4667;42.726;23.252;2023-08-01T03:20:03;4.33;;;2.80;;
9260;SDS011;4667;42.726;23.252;2023-08-01T03:22:37;5.87;;;2.93;;
9260;SDS011;4667;42.726;23.252;2023-08-01T03:25:04;3.20;;;2.70;;
9260;SDS011;4667;42.726;23.252;2023-08-01T03:27:32;3.20;;;2.90;;
9260;SDS011;4667;42.726;23.252;2023-08-01T03:29:59;3.27;;;2.70;;
9260;SDS011;4667;42.726;23.252;2023-08-01T03:32:33;3.73;;;2.97;;
9260;SDS011;4667;42.726;23.252;2023-08-01T03:35:00;7.03;;;2.80;;
9260;SDS011;4667;42.726;23.252;2023-08-01T03:37:27;5.57;;;3.00;;
9260;SDS011;4667;42.726;23.252;2023-08-01T03:39:55;4.70;;;3.00;;
9260;SDS011;4667;42.726;23.252;2023-08-01T03:42:22;4.47;;;3.30;;
9260;SDS011;4667;42.726;23.252;2023-08-01T03:44:49;3.40;;;3.10;;
9260;SDS011;4667;42.726;23.252;2023-08-01T03:47:15;5.07;;;2.97;;
9260;SDS011;4667;42.726;23.252;2023-08-01T03:49:42;5.73;;;3.23;;
9260;SDS011;4667;42.726;23.252;2023-08-01T03:52:09;4.63;;;3.23;;
9260;SDS011;4667;42.726;23.252;2023-08-01T03:54:35;7.33;;;3.50;;
9260;SDS011;4667;42.726;23.252;2023-08-01T03:57:04;3.83;;;3.20;;
9260;SDS011;4667;42.726;23.252;2023-08-01T03:59:31;6.20;;;3.50;;
9260;SDS011;4667;42.726;23.252;2023-08-01T04:01:58;5.43;;;3.73;;
9260;SDS011;4667;42.726;23.252;2023-08-01T04:04:26;7.30;;;3.60;;
9260;SDS011;4667;42.726;23.252;2023-08-01T04:06:53;6.90;;;3.43;;
9260;SDS011;4667;42.726;23.252;2023-08-01T04:09:20;4.83;;;3.77;;
9260;SDS011;4667;42.726;23.252;2023-08-01T04:11:47;7.37;;;3.70;;
9260;SDS011;4667;42.726;23.252;2023-08-01T04:14:15;6.13;;;3.93;;
9260;SDS011;4667;42.726;23.252;2023-08-01T04:16:42;5.17;;;3.80;;
9260;SDS011;4667;42.726;23.252;2023-08-01T04:19:08;9.13;;;3.90;;
9260;SDS011;4667;42.726;23.252;2023-08-01T04:21:35;5.83;;;4.07;;
9260;SDS011;4667;42.726;23.252;2023-08-01T04:24:02;4.07;;;3.67;;
9260;SDS011;4667;42.726;23.252;2023-08-01T04:26:29;8.77;;;3.67;;
9260;SDS011;4667;42.726;23.252;2023-08-01T04:28:55;5.93;;;3.80;;
9260;SDS011;4667;42.726;23.252;2023-08-01T04:31:23;5.80;;;4.03;;
9260;SDS011;4667;42.726;23.252;2023-08-01T04:33:50;5.20;;;4.20;;
9260;SDS011;4667;42.726;23.252;2023-08-01T04:36:17;5.83;;;4.17;;
9260;SDS011;4667;42.726;23.252;2023-08-01T04:38:43;4.93;;;3.90;;
9260;SDS011;4667;42.726;23.252;2023-08-01T04:41:10;6.73;;;3.50;;
9260;SDS011;4667;42.726;23.252;2023-08-01T04:43:37;6.33;;;3.40;;
9260;SDS011;4667;42.726;23.252;2023-08-01T04:46:04;8.40;;;3.53;;
9260;SDS011;4667;42.726;23.252;2023-08-01T04:48:32;7.30;;;3.65;;
9260;SDS011;4667;42.726;23.252;2023-08-01T04:50:58;5.63;;;3.60;;
9260;SDS011;4667;42.726;23.252;2023-08-01T04:53:25;3.97;;;3.57;;
9260;SDS011;4667;42.726;23.252;2023-08-01T04:55:52;7.40;;;3.57;;
9260;SDS011;4667;42.726;23.252;2023-08-01T04:58:18;6.63;;;3.43;;
9260;SDS011;4667;42.726;23.252;2023-08-01T05:00:45;8.03;;;3.07;;
9260;SDS011;4667;42.726;23.252;2023-08-01T05:03:12;4.10;;;3.70;;
9260;SDS011;4667;42.726;23.252;2023-08-01T05:05:40;5.87;;;3.90;;
9260;SDS011;4667;42.726;23.252;2023-08-01T05:08:06;5.23;;;3.60;;
9260;SDS011;4667;42.726;23.252;2023-08-01T05:10:33;9.30;;;3.97;;
9260;SDS011;4667;42.726;23.252;2023-08-01T05:13:00;6.10;;;4.32;;
9260;SDS011;4667;42.726;23.252;2023-08-01T05:15:27;7.82;;;3.88;;
9260;SDS011;4667;42.726;23.252;2023-08-01T05:17:54;8.60;;;4.50;;
9260;SDS011;4667;42.726;23.252;2023-08-01T05:20:21;8.43;;;5.45;;
9260;SDS011;4667;42.726;23.252;2023-08-01T05:22:49;8.32;;;5.88;;
9260;SDS011;4667;42.726;23.252;2023-08-01T05:25:15;8.18;;;5.90;;
9260;SDS011;4667;42.726;23.252;2023-08-01T05:27:42;6.57;;;5.90;;
9260;SDS011;4667;42.726;23.252;2023-08-01T05:30:10;11.15;;;9.00;;
9260;SDS011;4667;42.726;23.252;2023-08-01T05:32:37;14.40;;;10.55;;
9260;SDS011;4667;42.726;23.252;2023-08-01T05:35:05;9.25;;;7.90;;
9260;SDS011;4667;42.726;23.252;2023-08-01T05:37:33;6.40;;;4.90;;
9260;SDS011;4667;42.726;23.252;2023-08-01T05:40:01;6.00;;;5.32;;
9260;SDS011;4667;42.726;23.252;2023-08-01T05:42:28;6.00;;;5.40;;
9260;SDS011;4667;42.726;23.252;2023-08-01T05:44:55;7.13;;;4.95;;
9260;SDS011;4667;42.726;23.252;2023-08-01T05:47:21;7.22;;;4.00;;
9260;SDS011;4667;42.726;23.252;2023-08-01T05:49:48;5.97;;;3.90;;
9260;SDS011;4667;42.726;23.252;2023-08-01T05:52:15;7.13;;;3.47;;
9260;SDS011;4667;42.726;23.252;2023-08-01T05:54:42;7.90;;;3.88;;
9260;SDS011;4667;42.726;23.252;2023-08-01T05:57:10;6.50;;;2.80;;
9260;SDS011;4667;42.726;23.252;2023-08-01T05:59:36;6.05;;;2.88;;
9260;SDS011;4667;42.726;23.252;2023-08-01T06:02:03;5.65;;;3.38;;
9260;SDS011;4667;42.726;23.252;2023-08-01T06:04:30;5.88;;;3.70;;
9260;SDS011;4667;42.726;23.252;2023-08-01T06:06:57;5.93;;;2.95;;
9260;SDS011;4667;42.726;23.252;2023-08-01T06:09:24;5.30;;;3.17;;
9260;SDS011;4667;42.726;23.252;2023-08-01T06:11:50;8.25;;;2.80;;
9260;SDS011;4667;42.726;23.252;2023-08-01T06:14:19;4.57;;;3.35;;
9260;SDS011;4667;42.726;23.252;2023-08-01T06:16:45;4.45;;;2.92;;
9260;SDS011;4667;42.726;23.252;2023-08-01T06:19:12;4.78;;;2.88;;
9260;SDS011;4667;42.726;23.252;2023-08-01T06:21:39;5.85;;;2.97;;
9260;SDS011;4667;42.726;23.252;2023-08-01T06:24:06;7.05;;;2.80;;
9260;SDS011;4667;42.726;23.252;2023-08-01T06:26:33;3.50;;;2.60;;
9260;SDS011;4667;42.726;23.252;2023-08-01T06:29:00;5.55;;;3.03;;
9260;SDS011;4667;42.726;23.252;2023-08-01T06:31:28;5.95;;;3.10;;
9260;SDS011;4667;42.726;23.252;2023-08-01T06:33:55;4.05;;;3.05;;
9260;SDS011;4667;42.726;23.252;2023-08-01T06:36:21;2.83;;;2.45;;
9260;SDS011;4667;42.726;23.252;2023-08-01T06:38:48;6.45;;;2.95;;
9260;SDS011;4667;42.726;23.252;2023-08-01T06:41:15;4.80;;;3.17;;
9260;SDS011;4667;42.726;23.252;2023-08-01T06:43:42;3.30;;;2.53;;
9260;SDS011;4667;42.726;23.252;2023-08-01T06:46:08;9.00;;;3.40;;
9260;SDS011;4667;42.726;23.252;2023-08-01T06:48:37;5.28;;;3.33;;
9260;SDS011;4667;42.726;23.252;2023-08-01T06:51:03;4.15;;;2.80;;
9260;SDS011;4667;42.726;23.252;2023-08-01T06:53:30;5.65;;;3.00;;
9260;SDS011;4667;42.726;23.252;2023-08-01T06:55:57;5.82;;;2.47;;
9260;SDS011;4667;42.726;23.252;2023-08-01T06:58:23;9.60;;;3.70;;
9260;SDS011;4667;42.726;23.252;2023-08-01T07:00:50;6.30;;;3.03;;
9260;SDS011;4667;42.726;23.252;2023-08-01T07:03:17;5.53;;;2.90;;
9260;SDS011;4667;42.726;23.252;2023-08-01T07:05:45;4.28;;;3.03;;
9260;SDS011;4667;42.726;23.252;2023-08-01T07:08:12;5.03;;;2.60;;
9260;SDS011;4667;42.726;23.252;2023-08-01T07:10:38;6.85;;;3.10;;
9260;SDS011;4667;42.726;23.252;2023-08-01T07:13:05;6.43;;;2.67;;
9260;SDS011;4667;42.726;23.252;2023-08-01T07:15:32;6.78;;;3.20;;
9260;SDS011;4667;42.726;23.252;2023-08-01T07:17:59;5.40;;;2.97;;
9260;SDS011;4667;42.726;23.252;2023-08-01T07:20:26;4.22;;;2.88;;
9260;SDS011;4667;42.726;23.252;2023-08-01T07:22:54;3.67;;;2.88;;
9260;SDS011;4667;42.726;23.252;2023-08-01T07:25:21;6.18;;;3.00;;
9260;SDS011;4667;42.726;23.252;2023-08-01T07:27:47;4.95;;;2.58;;
9260;SDS011;4667;42.726;23.252;2023-08-01T07:30:14;5.18;;;2.72;;
9260;SDS011;4667;42.726;23.252;2023-08-01T07:32:41;6.80;;;2.97;;
9260;SDS011;4667;42.726;23.252;2023-08-01T07:35:08;3.28;;;2.60;;
9260;SDS011;4667;42.726;23.252;2023-08-01T07:37:35;3.83;;;2.75;;
9260;SDS011;4667;42.726;23.252;2023-08-01T07:40:04;6.18;;;2.97;;
9260;SDS011;4667;42.726;23.252;2023-08-01T07:42:31;3.28;;;2.40;;
9260;SDS011;4667;42.726;23.252;2023-08-01T07:44:58;6.65;;;3.10;;
9260;SDS011;4667;42.726;23.252;2023-08-01T07:47:25;4.65;;;2.63;;
9260;SDS011;4667;42.726;23.252;2023-08-01T07:49:51;9.05;;;3.10;;
9260;SDS011;4667;42.726;23.252;2023-08-01T07:52:18;4.03;;;2.85;;
9260;SDS011;4667;42.726;23.252;2023-08-01T07:54:45;6.80;;;2.70;;
9260;SDS011;4667;42.726;23.252;2023-08-01T07:57:13;4.53;;;2.90;;
9260;SDS011;4667;42.726;23.252;2023-08-01T07:59:40;6.03;;;3.22;;
9260;SDS011;4667;42.726;23.252;2023-08-01T08:02:07;3.38;;;3.08;;
9260;SDS011;4667;42.726;23.252;2023-08-01T08:04:34;3.95;;;3.28;;
9260;SDS011;4667;42.726;23.252;2023-08-01T08:07:00;4.82;;;2.88;;
9260;SDS011;4667;42.726;23.252;2023-08-01T08:09:27;4.90;;;2.63;;
9260;SDS011;4667;42.726;23.252;2023-08-01T08:11:54;4.15;;;2.95;;
9260;SDS011;4667;42.726;23.252;2023-08-01T08:14:23;6.05;;;3.20;;
9260;SDS011;4667;42.726;23.252;2023-08-01T08:16:50;5.25;;;2.88;;
9260;SDS011;4667;42.726;23.252;2023-08-01T08:19:17;3.22;;;2.70;;
9260;SDS011;4667;42.726;23.252;2023-08-01T08:21:44;3.83;;;2.60;;
9260;SDS011;4667;42.726;23.252;2023-08-01T08:24:10;5.38;;;2.75;;
9260;SDS011;4667;42.726;23.252;2023-08-01T08:26:37;6.38;;;3.40;;
9260;SDS011;4667;42.726;23.252;2023-08-01T08:29:04;4.38;;;3.00;;
9260;SDS011;4667;42.726;23.252;2023-08-01T08:31:33;7.07;;;2.83;;
9260;SDS011;4667;42.726;23.252;2023-08-01T08:33:59;3.67;;;3.08;;
9260;SDS011;4667;42.726;23.252;2023-08-01T08:36:26;4.55;;;3.63;;
9260;SDS011;4667;42.726;23.252;2023-08-01T08:38:53;7.15;;;3.25;;
9260;SDS011;4667;42.726;23.252;2023-08-01T08:41:20;7.75;;;3.30;;
9260;SDS011;4667;42.726;23.252;2023-08-01T08:43:48;10.57;;;3.60;;
9260;SDS011;4667;42.726;23.252;2023-08-01T08:46:15;13.52;;;7.30;;
9260;SDS011;4667;42.726;23.252;2023-08-01T08:48:44;9.68;;;4.18;;
9260;SDS011;4667;42.726;23.252;2023-08-01T08:51:12;6.93;;;3.72;;
9260;SDS011;4667;42.726;23.252;2023-08-01T08:53:47;5.75;;;3.20;;
9260;SDS011;4667;42.726;23.252;2023-08-01T08:56:17;8.93;;;3.53;;
9260;SDS011;4667;42.726;23.252;2023-08-01T08:58:44;5.70;;;2.95;;
9260;SDS011;4667;42.726;23.252;2023-08-01T09:01:12;4.75;;;3.15;;
9260;SDS011;4667;42.726;23.252;2023-08-01T09:03:39;7.70;;;3.40;;
9260;SDS011;4667;42.726;23.252;2023-08-01T09:06:09;8.93;;;3.05;;
9260;SDS011;4667;42.726;23.252;2023-08-01T09:08:40;5.97;;;3.38;;
9260;SDS011;4667;42.726;23.252;2023-08-01T09:11:17;5.80;;;3.42;;
9260;SDS011;4667;42.726;23.252;2023-08-01T09:13:44;6.72;;;4.57;;
9260;SDS011;4667;42.726;23.252;2023-08-01T09:16:11;7.00;;;3.22;;
9260;SDS011;4667;42.726;23.252;2023-08-01T09:18:46;8.45;;;3.83;;
9260;SDS011;4667;42.726;23.252;2023-08-01T09:21:15;8.25;;;3.50;;
9260;SDS011;4667;42.726;23.252;2023-08-01T09:23:44;5.93;;;3.33;;
9260;SDS011;4667;42.726;23.252;2023-08-01T09:26:13;5.15;;;3.35;;
9260;SDS011;4667;42.726;23.252;2023-08-01T09:28:40;5.90;;;3.38;;
9260;SDS011;4667;42.726;23.252;2023-08-01T09:31:07;6.00;;;3.13;;
9260;SDS011;4667;42.726;23.252;2023-08-01T09:33:38;3.33;;;2.85;;
9260;SDS011;4667;42.726;23.252;2023-08-01T09:36:06;4.30;;;3.58;;
9260;SDS011;4667;42.726;23.252;2023-08-01T09:38:35;5.28;;;3.00;;
9260;SDS011;4667;42.726;23.252;2023-08-01T09:41:02;4.40;;;3.20;;
9260;SDS011;4667;42.726;23.252;2023-08-01T09:43:33;3.78;;;3.28;;
9260;SDS011;4667;42.726;23.252;2023-08-01T09:46:00;6.18;;;4.03;;
9260;SDS011;4667;42.726;23.252;2023-08-01T09:48:27;4.35;;;2.92;;
9260;SDS011;4667;42.726;23.252;2023-08-01T09:51:05;5.55;;;3.20;;
9260;SDS011;4667;42.726;23.252;2023-08-01T09:53:32;7.40;;;3.40;;
9260;SDS011;4667;42.726;23.252;2023-08-01T09:56:01;3.05;;;2.72;;
9260;SDS011;4667;42.726;23.252;2023-08-01T09:58:30;6.40;;;3.40;;
9260;SDS011;4667;42.726;23.252;2023-08-01T10:00:59;4.90;;;3.20;;
9260;SDS011;4667;42.726;23.252;2023-08-01T10:03:26;6.60;;;3.40;;
9260;SDS011;4667;42.726;23.252;2023-08-01T10:05:53;6.47;;;3.20;;
9260;SDS011;4667;42.726;23.252;2023-08-01T10:08:21;5.35;;;3.90;;
9260;SDS011;4667;42.726;23.252;2023-08-01T10:10:50;9.30;;;3.83;;
9260;SDS011;4667;42.726;23.252;2023-08-01T10:13:18;4.03;;;3.47;;
9260;SDS011;4667;42.726;23.252;2023-08-01T10:15:47;6.78;;;3.85;;
9260;SDS011;4667;42.726;23.252;2023-08-01T10:18:14;8.65;;;3.33;;
9260;SDS011;4667;42.726;23.252;2023-08-01T10:20:42;5.55;;;3.13;;
9260;SDS011;4667;42.726;23.252;2023-08-01T10:23:10;4.60;;;3.40;;
9260;SDS011;4667;42.726;23.252;2023-08-01T10:25:38;7.65;;;6.03;;
9260;SDS011;4667;42.726;23.252;2023-08-01T10:28:07;5.82;;;3.00;;
9260;SDS011;4667;42.726;23.252;2023-08-01T10:30:34;8.90;;;6.57;;
9260;SDS011;4667;42.726;23.252;2023-08-01T10:33:00;10.27;;;7.40;;
9260;SDS011;4667;42.726;23.252;2023-08-01T10:35:34;4.95;;;3.65;;
9260;SDS011;4667;42.726;23.252;2023-08-01T10:38:05;3.65;;;3.15;;
9260;SDS011;4667;42.726;23.252;2023-08-01T10:40:34;6.97;;;2.40;;
9260;SDS011;4667;42.726;23.252;2023-08-01T10:43:03;6.93;;;3.45;;
9260;SDS011;4667;42.726;23.252;2023-08-01T10:45:31;6.13;;;3.90;;
9260;SDS011;4667;42.726;23.252;2023-08-01T10:48:08;3.40;;;2.90;;
9260;SDS011;4667;42.726;23.252;2023-08-01T10:50:35;3.38;;;2.78;;
9260;SDS011;4667;42.726;23.252;2023-08-01T10:53:03;6.00;;;3.35;;
9260;SDS011;4667;42.726;23.252;2023-08-01T10:55:40;8.10;;;3.58;;
9260;SDS011;4667;42.726;23.252;2023-08-01T10:58:08;13.27;;;8.10;;
9260;SDS011;4667;42.726;23.252;2023-08-01T11:00:37;4.13;;;3.30;;
9260;SDS011;4667;42.726;23.252;2023-08-01T11:03:04;4.53;;;3.30;;
9260;SDS011;4667;42.726;23.252;2023-08-01T11:05:31;4.88;;;3.00;;
9260;SDS011;4667;42.726;23.252;2023-08-01T11:07:58;7.57;;;3.45;;
9260;SDS011;4667;42.726;23.252;2023-08-01T11:10:26;8.35;;;3.60;;
9260;SDS011;4667;42.726;23.252;2023-08-01T11:12:54;4.70;;;3.10;;
9260;SDS011;4667;42.726;23.252;2023-08-01T11:15:20;6.30;;;3.80;;
9260;SDS011;4667;42.726;23.252;2023-08-01T11:17:49;4.80;;;4.30;;
9260;SDS011;4667;42.726;23.252;2023-08-01T11:20:17;4.60;;;3.00;;
9260;SDS011;4667;42.726;23.252;2023-08-01T11:22:49;5.18;;;2.92;;
9260;SDS011;4667;42.726;23.252;2023-08-01T11:25:17;5.72;;;2.80;;
9260;SDS011;4667;42.726;23.252;2023-08-01T11:27:44;5.00;;;2.90;;
9260;SDS011;4667;42.726;23.252;2023-08-01T11:30:11;3.92;;;3.22;;
9260;SDS011;4667;42.726;23.252;2023-08-01T11:32:38;7.75;;;3.03;;
9260;SDS011;4667;42.726;23.252;2023-08-01T11:35:07;3.13;;;2.70;;
9260;SDS011;4667;42.726;23.252;2023-08-01T11:37:33;3.88;;;2.35;;
9260;SDS011;4667;42.726;23.252;2023-08-01T11:40:01;4.78;;;2.90;;
9260;SDS011;4667;42.726;23.252;2023-08-01T11:42:32;4.88;;;2.75;;
9260;SDS011;4667;42.726;23.252;2023-08-01T11:45:09;3.83;;;3.40;;
9260;SDS011;4667;42.726;23.252;2023-08-01T11:47:36;3.03;;;2.47;;
9260;SDS011;4667;42.726;23.252;2023-08-01T11:50:03;3.20;;;2.90;;
9260;SDS011;4667;42.726;23.252;2023-08-01T11:52:33;3.00;;;2.70;;
9260;SDS011;4667;42.726;23.252;2023-08-01T11:55:00;3.63;;;2.60;;
9260;SDS011;4667;42.726;23.252;2023-08-01T11:57:30;3.22;;;2.35;;
9260;SDS011;4667;42.726;23.252;2023-08-01T11:59:57;2.72;;;2.38;;
9260;SDS011;4667;42.726;23.252;2023-08-01T12:02:24;3.20;;;2.90;;
9260;SDS011;4667;42.726;23.252;2023-08-01T12:04:51;3.65;;;3.13;;
9260;SDS011;4667;42.726;23.252;2023-08-01T12:07:19;2.72;;;2.47;;
9260;SDS011;4667;42.726;23.252;2023-08-01T12:09:56;3.05;;;2.72;;
9260;SDS011;4667;42.726;23.252;2023-08-01T12:12:23;3.05;;;2.50;;
9260;SDS011;4667;42.726;23.252;2023-08-01T12:14:49;3.63;;;2.58;;
9260;SDS011;4667;42.726;23.252;2023-08-01T12:17:17;2.63;;;2.35;;
9260;SDS011;4667;42.726;23.252;2023-08-01T12:19:43;2.63;;;2.00;;
9260;SDS011;4667;42.726;23.252;2023-08-01T12:22:11;2.55;;;2.22;;
9260;SDS011;4667;42.726;23.252;2023-08-01T12:24:38;2.83;;;2.28;;
9260;SDS011;4667;42.726;23.252;2023-08-01T12:27:06;3.90;;;2.72;;
9260;SDS011;4667;42.726;23.252;2023-08-01T12:29:33;4.03;;;2.65;;
9260;SDS011;4667;42.726;23.252;2023-08-01T12:32:01;2.50;;;2.30;;
9260;SDS011;4667;42.726;23.252;2023-08-01T12:34:28;3.80;;;2.67;;
9260;SDS011;4667;42.726;23.252;2023-08-01T12:36:54;3.10;;;2.80;;
9260;SDS011;4667;42.726;23.252;2023-08-01T12:39:21;4.38;;;2.22;;
9260;SDS011;4667;42.726;23.252;2023-08-01T12:41:50;3.85;;;2.20;;
9260;SDS011;4667;42.726;23.252;2023-08-01T12:44:18;3.13;;;2.88;;
9260;SDS011;4667;42.726;23.252;2023-08-01T12:46:45;2.30;;;2.10;;
9260;SDS011;4667;42.726;23.252;2023-08-01T12:49:11;4.32;;;2.33;;
9260;SDS011;4667;42.726;23.252;2023-08-01T12:51:38;5.28;;;2.40;;
9260;SDS011;4667;42.726;23.252;2023-08-01T12:54:05;3.33;;;2.40;;
9260;SDS011;4667;42.726;23.252;2023-08-01T12:56:32;3.20;;;2.33;;
9260;SDS011;4667;42.726;23.252;2023-08-01T12:58:58;4.40;;;2.40;;
9260;SDS011;4667;42.726;23.252;2023-08-01T13:01:26;4.32;;;2.67;;
9260;SDS011;4667;42.726;23.252;2023-08-01T13:03:53;2.40;;;2.20;;
9260;SDS011;4667;42.726;23.252;2023-08-01T13:06:20;5.00;;;2.17;;
9260;SDS011;4667;42.726;23.252;2023-08-01T13:08:47;4.00;;;2.42;;
9260;SDS011;4667;42.726;23.252;2023-08-01T13:11:14;6.55;;;2.30;;
9260;SDS011;4667;42.726;23.252;2023-08-01T13:13:41;3.85;;;2.30;;
9260;SDS011;4667;42.726;23.252;2023-08-01T13:16:08;3.92;;;2.28;;
9260;SDS011;4667;42.726;23.252;2023-08-01T13:18:36;3.88;;;2.33;;
9260;SDS011;4667;42.726;23.252;2023-08-01T13:21:08;3.55;;;2.45;;
9260;SDS011;4667;42.726;23.252;2023-08-01T13:23:35;3.30;;;2.30;;
9260;SDS011;4667;42.726;23.252;2023-08-01T13:26:04;3.50;;;2.85;;
9260;SDS011;4667;42.726;23.252;2023-08-01T13:28:30;4.45;;;2.83;;
9260;SDS011;4667;42.726;23.252;2023-08-01T13:30:57;2.80;;;2.28;;
9260;SDS011;4667;42.726;23.252;2023-08-01T13:33:24;3.65;;;2.30;;
9260;SDS011;4667;42.726;23.252;2023-08-01T13:35:52;3.50;;;2.70;;
9260;SDS011;4667;42.726;23.252;2023-08-01T13:38:19;2.40;;;2.13;;
9260;SDS011;4667;42.726;23.252;2023-08-01T13:40:46;2.30;;;2.10;;
9260;SDS011;4667;42.726;23.252;2023-08-01T13:43:13;2.55;;;2.05;;
9260;SDS011;4667;42.726;23.252;2023-08-01T13:45:40;2.72;;;2.45;;
9260;SDS011;4667;42.726;23.252;2023-08-01T13:48:07;3.03;;;2.70;;
9260;SDS011;4667;42.726;23.252;2023-08-01T13:50:33;3.75;;;2.55;;
9260;SDS011;4667;42.726;23.252;2023-08-01T13:53:02;3.65;;;2.53;;
9260;SDS011;4667;42.726;23.252;2023-08-01T13:55:28;3.50;;;2.38;;
9260;SDS011;4667;42.726;23.252;2023-08-01T13:57:55;2.90;;;2.38;;
9260;SDS011;4667;42.726;23.252;2023-08-01T14:00:22;2.65;;;2.05;;
9260;SDS011;4667;42.726;23.252;2023-08-01T14:02:49;2.50;;;2.30;;
9260;SDS011;4667;42.726;23.252;2023-08-01T14:05:16;3.95;;;2.25;;
9260;SDS011;4667;42.726;23.252;2023-08-01T14:07:43;3.42;;;2.55;;
9260;SDS011;4667;42.726;23.252;2023-08-01T14:10:11;2.97;;;2.22;;
9260;SDS011;4667;42.726;23.252;2023-08-01T14:12:39;3.25;;;2.50;;
9260;SDS011;4667;42.726;23.252;2023-08-01T14:15:06;3.47;;;2.55;;
9260;SDS011;4667;42.726;23.252;2023-08-01T14:17:34;3.10;;;2.75;;
9260;SDS011;4667;42.726;23.252;2023-08-01T14:20:00;3.63;;;2.97;;
9260;SDS011;4667;42.726;23.252;2023-08-01T14:22:29;3.13;;;2.60;;
9260;SDS011;4667;42.726;23.252;2023-08-01T14:24:55;6.72;;;2.72;;
9260;SDS011;4667;42.726;23.252;2023-08-01T14:27:22;3.15;;;2.60;;
9260;SDS011;4667;42.726;23.252;2023-08-01T14:29:49;2.53;;;2.33;;
9260;SDS011;4667;42.726;23.252;2023-08-01T14:32:17;4.10;;;2.50;;
9260;SDS011;4667;42.726;23.252;2023-08-01T14:34:44;4.15;;;2.50;;
9260;SDS011;4667;42.726;23.252;2023-08-01T14:37:11;2.70;;;2.50;;
9260;SDS011;4667;42.726;23.252;2023-08-01T14:39:38;2.35;;;2.15;;
9260;SDS011;4667;42.726;23.252;2023-08-01T14:42:05;2.72;;;2.08;;
9260;SDS011;4667;42.726;23.252;2023-08-01T14:44:33;4.05;;;3.65;;
9260;SDS011;4667;42.726;23.252;2023-08-01T14:47:00;2.67;;;2.10;;
9260;SDS011;4667;42.726;23.252;2023-08-01T14:49:27;2.72;;;2.53;;
9260;SDS011;4667;42.726;23.252;2023-08-01T14:51:54;3.33;;;3.03;;
9260;SDS011;4667;42.726;23.252;2023-08-01T14:54:21;2.65;;;2.45;;
9260;SDS011;4667;42.726;23.252;2023-08-01T14:56:50;4.28;;;2.72;;
9260;SDS011;4667;42.726;23.252;2023-08-01T14:59:17;3.30;;;2.60;;
9260;SDS011;4667;42.726;23.252;2023-08-01T15:01:48;4.65;;;2.75;;